createdAt,value
2023-03-14T00:03:58.173Z,2088.00
2023-03-14T00:07:58.271Z,2330.00
2023-03-14T00:11:58.472Z,1955.00
2023-03-14T00:15:58.616Z,2054.00
2023-03-14T00:19:58.739Z,1950.00
2023-03-14T00:23:58.925Z,1838.00
2023-03-14T00:27:59.119Z,2120.00
2023-03-14T00:31:59.097Z,2297.00
2023-03-14T00:35:59.248Z,2308.00
2023-03-14T00:39:59.331Z,2153.00
2023-03-14T00:43:59.509Z,2223.00
2023-03-14T00:47:59.626Z,2753.00
2023-03-14T00:51:59.696Z,2421.00
2023-03-14T00:55:59.795Z,2651.00
2023-03-14T00:59:59.951Z,3331.00
2023-03-14T01:04:00.048Z,2604.00
2023-03-14T01:08:00.204Z,2918.00
2023-03-14T01:12:00.342Z,3090.00
2023-03-14T01:16:00.557Z,2593.00
2023-03-14T01:20:00.574Z,2701.00
2023-03-14T01:24:00.655Z,2791.00
2023-03-14T01:28:00.819Z,2997.00
2023-03-14T01:32:00.952Z,3253.00
2023-03-14T01:36:01.078Z,3450.00
2023-03-14T01:40:01.133Z,4579.00
2023-03-14T01:44:01.263Z,4664.00
2023-03-14T01:48:01.380Z,4235.00
2023-03-14T01:52:01.530Z,4010.00
2023-03-14T01:56:01.590Z,4057.00
2023-03-14T02:00:01.797Z,3047.00
2023-03-14T02:04:01.861Z,2610.00
2023-03-14T02:08:01.966Z,2693.00
2023-03-14T02:12:02.092Z,4505.00
2023-03-14T02:16:02.246Z,6042.00
2023-03-14T02:20:02.373Z,4145.00
2023-03-14T02:24:02.522Z,5469.00
2023-03-14T02:28:02.620Z,5446.00
2023-03-14T02:32:02.776Z,4914.00
2023-03-14T02:36:02.900Z,4983.00
2023-03-14T02:40:03.026Z,5272.00
2023-03-14T02:44:03.033Z,3734.00
2023-03-14T02:48:03.140Z,6533.00
2023-03-14T02:52:03.272Z,7216.00
2023-03-14T02:56:03.422Z,7209.00
2023-03-14T03:00:03.509Z,6903.00
2023-03-14T03:04:03.655Z,7226.00
2023-03-14T03:08:03.763Z,7395.00
2023-03-14T03:12:03.861Z,6943.00
2023-03-14T03:16:03.971Z,6143.00
2023-03-14T03:20:04.053Z,6201.00
2023-03-14T03:24:04.165Z,6745.00
2023-03-14T03:28:04.197Z,7255.00
2023-03-14T03:32:04.383Z,6502.00
2023-03-14T03:36:04.571Z,6365.00
2023-03-14T03:40:04.574Z,6599.00
2023-03-14T03:44:04.700Z,6663.00
2023-03-14T03:48:04.810Z,6876.00
2023-03-14T03:52:04.915Z,6942.00
2023-03-14T03:56:05.035Z,6888.00
2023-03-14T04:00:05.152Z,6824.00
2023-03-14T04:04:05.294Z,6979.00
2023-03-14T04:08:05.462Z,7094.00
2023-03-14T04:12:05.577Z,7232.00
2023-03-14T04:16:05.856Z,7431.00
2023-03-14T04:20:05.835Z,7802.00
2023-03-14T04:24:05.942Z,7847.00
2023-03-14T04:28:06.097Z,7766.00
2023-03-14T04:32:06.174Z,7852.00
2023-03-14T04:36:06.348Z,7842.00
2023-03-14T04:40:06.412Z,7950.00
2023-03-14T04:44:06.603Z,7891.00
2023-03-14T04:48:06.639Z,7858.00
2023-03-14T04:52:06.758Z,7958.00
2023-03-14T04:56:06.890Z,8047.00
2023-03-14T05:00:07.001Z,8076.00
2023-03-14T05:04:07.185Z,8394.00
2023-03-14T05:08:07.246Z,8089.00
2023-03-14T05:12:07.363Z,7599.00
2023-03-14T05:16:07.494Z,7102.00
2023-03-14T05:20:07.592Z,7220.00
2023-03-14T05:24:07.675Z,7586.00
2023-03-14T05:28:07.787Z,7240.00
2023-03-14T05:32:07.939Z,7510.00
2023-03-14T05:36:08.095Z,7402.00
2023-03-14T05:40:08.182Z,7263.00
2023-03-14T05:44:08.302Z,6753.00
2023-03-14T05:48:08.449Z,7364.00
2023-03-14T05:52:08.554Z,6913.00
2023-03-14T05:56:08.662Z,7877.00
2023-03-14T06:00:08.789Z,7555.00
2023-03-14T06:04:08.886Z,7655.00
2023-03-14T06:08:09.007Z,8243.00
2023-03-14T06:12:09.108Z,7968.00
2023-03-14T06:16:09.293Z,7758.00
2023-03-14T06:20:09.386Z,7130.00
2023-03-14T06:24:09.519Z,7602.00
2023-03-14T06:28:09.660Z,7901.00
2023-03-14T06:32:09.822Z,7704.00
2023-03-14T06:36:10.002Z,7633.00
2023-03-14T06:40:10.082Z,7956.00
2023-03-14T06:44:10.193Z,7440.00
2023-03-14T06:48:10.273Z,7130.00
2023-03-14T06:52:10.573Z,6928.00
2023-03-14T06:56:10.578Z,6887.00
2023-03-14T07:00:10.665Z,6375.00
2023-03-14T07:04:10.856Z,6229.00
2023-03-14T07:08:10.920Z,5940.00
2023-03-14T07:12:11.008Z,5590.00
2023-03-14T07:16:11.144Z,5826.00
2023-03-14T07:20:11.262Z,5463.00
2023-03-14T07:24:11.374Z,5624.00
2023-03-14T07:28:11.520Z,6122.00
2023-03-14T07:32:11.661Z,5943.00
2023-03-14T07:36:12.170Z,5931.00
2023-03-14T07:40:12.103Z,5448.00
2023-03-14T07:44:12.093Z,5829.00
2023-03-14T07:48:12.245Z,6003.00
2023-03-14T07:52:12.451Z,5393.00
2023-03-14T07:56:12.549Z,5194.00
2023-03-14T08:00:14.840Z,5441.00
2023-03-14T08:04:12.783Z,4843.00
2023-03-14T08:08:12.664Z,5057.00
2023-03-14T08:12:12.601Z,5504.00
2023-03-14T08:16:12.592Z,5996.00
2023-03-14T08:20:12.525Z,6258.00
2023-03-14T08:24:12.517Z,6379.00
2023-03-14T08:28:12.480Z,6364.00
2023-03-14T08:32:12.622Z,6552.00
2023-03-14T08:36:12.412Z,6557.00
2023-03-14T08:40:12.638Z,6506.00
2023-03-14T08:44:12.564Z,6294.00
2023-03-14T08:48:12.288Z,5512.00
2023-03-14T08:52:12.267Z,6121.00
2023-03-14T08:56:12.195Z,5718.00
2023-03-14T09:00:12.273Z,5960.00
2023-03-14T09:04:12.453Z,5951.00
2023-03-14T09:08:12.545Z,5471.00
2023-03-14T09:12:13.084Z,5333.00
2023-03-14T09:16:12.787Z,5134.00
2023-03-14T09:20:13.090Z,4796.00
2023-03-14T09:24:13.043Z,5030.00
2023-03-14T09:28:13.179Z,4792.00
2023-03-14T09:32:18.720Z,7343.00
2023-03-14T09:36:14.225Z,6927.00
2023-03-14T09:40:13.232Z,5728.00
2023-03-14T09:44:14.095Z,5819.00
2023-03-14T09:48:13.145Z,6406.00
2023-03-14T09:52:13.140Z,5965.00
2023-03-14T09:56:13.189Z,6245.00
2023-03-14T10:00:13.289Z,5992.00
2023-03-14T10:04:13.446Z,5659.00
2023-03-14T10:08:13.489Z,6047.00
2023-03-14T10:12:13.637Z,6057.00
2023-03-14T10:16:13.849Z,5984.00
2023-03-14T10:20:13.865Z,5249.00
2023-03-14T10:24:13.944Z,4823.00
2023-03-14T10:28:14.083Z,5533.00
2023-03-14T10:32:14.585Z,5150.00
2023-03-14T10:36:15.684Z,4584.00
2023-03-14T10:40:14.468Z,5265.00
2023-03-14T10:44:14.487Z,5226.00
2023-03-14T10:48:14.536Z,5058.00
2023-03-14T10:52:14.677Z,4865.00
2023-03-14T10:56:14.719Z,4348.00
2023-03-14T11:00:14.754Z,4316.00
2023-03-14T11:04:14.849Z,4645.00
2023-03-14T11:08:15.016Z,4584.00
2023-03-14T11:12:15.007Z,4683.00
2023-03-14T11:16:15.171Z,4756.00
2023-03-14T11:20:15.313Z,5201.00
2023-03-14T11:24:15.421Z,5573.00
2023-03-14T11:28:15.562Z,5507.00
2023-03-14T11:32:15.681Z,4765.00
2023-03-14T11:36:15.737Z,4667.00
2023-03-14T11:40:15.836Z,5143.00
2023-03-14T11:44:16.036Z,4603.00
2023-03-14T11:48:16.152Z,4324.00
2023-03-14T11:52:16.884Z,4767.00
2023-03-14T11:56:16.390Z,3756.00
2023-03-14T12:00:16.476Z,4539.00
2023-03-14T12:04:16.673Z,4690.00
2023-03-14T12:08:16.646Z,4619.00
2023-03-14T12:12:16.770Z,4573.00
2023-03-14T12:16:17.167Z,4731.00
2023-03-14T12:20:17.032Z,4600.00
2023-03-14T12:24:17.357Z,4343.00
2023-03-14T12:28:17.289Z,5115.00
2023-03-14T12:32:17.356Z,5092.00
2023-03-14T12:36:17.506Z,3950.00
2023-03-14T12:40:17.596Z,3779.00
2023-03-14T12:44:17.753Z,4402.00
2023-03-14T12:48:17.843Z,5333.00
2023-03-14T12:52:17.948Z,5211.00
2023-03-14T12:56:18.028Z,4624.00
2023-03-14T13:00:18.114Z,5193.00
2023-03-14T13:04:23.773Z,4591.00
2023-03-14T13:08:19.220Z,4093.00
2023-03-14T13:12:18.187Z,4059.00
2023-03-14T13:16:18.339Z,4268.00
2023-03-14T13:20:18.652Z,5122.00
2023-03-14T13:24:18.537Z,4632.00
2023-03-14T13:28:18.679Z,5494.00
2023-03-14T13:32:18.924Z,5236.00
2023-03-14T13:36:18.842Z,5161.00
2023-03-14T13:40:19.016Z,5493.00
2023-03-14T13:44:19.082Z,5487.00
2023-03-14T13:48:19.175Z,5642.00
2023-03-14T13:52:19.289Z,6053.00
2023-03-14T13:56:19.508Z,5877.00
2023-03-14T14:00:19.917Z,5932.00
2023-03-14T14:04:19.773Z,5767.00
2023-03-14T14:08:19.835Z,5610.00
2023-03-14T14:12:19.940Z,5734.00
2023-03-14T14:16:20.207Z,5813.00
2023-03-14T14:20:20.169Z,6058.00
2023-03-14T14:24:20.292Z,6408.00
2023-03-14T14:28:20.455Z,6294.00
2023-03-14T14:32:20.584Z,5850.00
2023-03-14T14:36:20.737Z,5894.00
2023-03-14T14:40:20.737Z,5987.00
2023-03-14T14:44:20.800Z,5800.00
2023-03-14T14:48:20.852Z,6203.00
2023-03-14T14:52:21.001Z,6295.00
2023-03-14T14:56:21.181Z,6198.00
2023-03-14T15:00:21.247Z,6394.00
2023-03-14T15:04:21.342Z,6535.00
2023-03-14T15:08:21.430Z,6406.00
2023-03-14T15:12:21.600Z,6160.00
2023-03-14T15:16:21.854Z,6162.00
2023-03-14T15:20:21.850Z,5946.00
2023-03-14T15:24:21.938Z,6193.00
2023-03-14T15:28:22.046Z,6093.00
2023-03-14T15:32:22.217Z,6316.00
2023-03-14T15:36:22.322Z,5756.00
2023-03-14T15:40:22.429Z,6796.00
2023-03-14T15:44:22.518Z,6041.00
2023-03-14T15:48:22.642Z,5662.00
2023-03-14T15:52:22.662Z,5662.00
2023-03-14T15:56:22.793Z,6343.00
2023-03-14T16:00:22.896Z,6053.00
2023-03-14T16:04:23.034Z,6161.00
2023-03-14T16:08:23.141Z,6356.00
2023-03-14T16:12:23.297Z,6692.00
2023-03-14T16:16:23.404Z,6374.00
2023-03-14T16:20:23.469Z,6100.00
2023-03-14T16:24:23.567Z,5403.00
2023-03-14T16:28:23.669Z,3548.00
2023-03-14T16:32:23.983Z,3137.00
2023-03-14T16:36:24.101Z,4529.00
2023-03-14T16:40:24.074Z,3260.00
2023-03-14T16:44:24.171Z,3644.00
2023-03-14T16:48:24.322Z,5278.00
2023-03-14T16:52:24.429Z,6531.00
2023-03-14T16:56:24.866Z,5528.00
2023-03-14T17:00:24.676Z,4289.00
2023-03-14T17:04:24.931Z,4320.00
2023-03-14T17:08:24.972Z,4674.00
2023-03-14T17:12:25.114Z,3793.00
2023-03-14T17:16:25.290Z,5092.00
2023-03-14T17:20:25.321Z,2374.00
2023-03-14T17:24:25.445Z,3286.00
2023-03-14T17:28:25.617Z,1529.00
2023-03-14T17:32:25.819Z,628.00
2023-03-14T17:36:25.910Z,400.00
2023-03-14T17:40:26.022Z,806.00
2023-03-14T17:44:26.195Z,400.00
2023-03-14T17:48:26.297Z,603.00
2023-03-14T17:52:26.393Z,2443.00
2023-03-14T17:56:26.460Z,2910.00
2023-03-14T18:00:26.619Z,2981.00
2023-03-14T18:04:26.794Z,3358.00
2023-03-14T18:08:26.886Z,645.00
2023-03-14T18:12:26.997Z,400.00
2023-03-14T18:16:27.167Z,400.00
2023-03-14T18:20:27.278Z,400.00
2023-03-14T18:24:28.909Z,400.00
2023-03-14T18:28:27.507Z,1633.00
2023-03-14T18:32:27.665Z,1164.00
2023-03-14T18:36:27.734Z,2174.00
2023-03-14T18:40:27.903Z,3177.00
2023-03-14T18:44:28.030Z,3130.00
2023-03-14T18:48:28.181Z,3737.00
2023-03-14T18:52:28.293Z,4263.00
2023-03-14T18:56:28.447Z,4313.00
2023-03-14T19:00:28.575Z,4470.00
2023-03-14T19:04:28.660Z,4386.00
2023-03-14T19:08:28.886Z,4161.00
2023-03-14T19:12:28.905Z,4579.00
2023-03-14T19:16:29.075Z,4395.00
2023-03-14T19:20:29.095Z,4905.00
2023-03-14T19:24:29.219Z,5370.00
2023-03-14T19:28:29.281Z,6408.00
2023-03-14T19:32:29.534Z,4827.00
2023-03-14T19:36:29.644Z,5286.00
2023-03-14T19:40:29.774Z,4430.00
2023-03-14T19:44:29.860Z,6148.00
2023-03-14T19:48:30.569Z,6705.00
2023-03-14T19:52:30.177Z,6205.00
2023-03-14T19:56:30.237Z,5739.00
2023-03-14T20:00:30.385Z,6791.00
2023-03-14T20:04:30.511Z,7158.00
2023-03-14T20:08:30.642Z,6643.00
2023-03-14T20:12:30.800Z,5344.00
2023-03-14T20:16:30.999Z,6887.00
2023-03-14T20:20:31.024Z,6504.00
2023-03-14T20:24:31.170Z,6801.00
2023-03-14T20:28:31.330Z,7157.00
2023-03-14T20:32:31.555Z,7698.00
2023-03-14T20:36:31.475Z,7496.00
2023-03-14T20:40:31.582Z,6414.00
2023-03-14T20:44:31.672Z,6755.00
2023-03-14T20:48:31.750Z,7044.00
2023-03-14T20:52:31.913Z,7225.00
2023-03-14T20:56:31.985Z,7695.00
2023-03-14T21:00:32.060Z,8545.00
2023-03-14T21:04:32.198Z,8535.00
2023-03-14T21:08:32.332Z,8774.00
2023-03-14T21:12:32.418Z,8747.00
2023-03-14T21:16:32.582Z,8897.00
2023-03-14T21:20:32.613Z,8095.00
2023-03-14T21:24:32.691Z,8221.00
2023-03-14T21:28:32.828Z,7396.00
2023-03-14T21:32:32.995Z,7242.00
2023-03-14T21:36:33.025Z,7563.00
2023-03-14T21:40:33.141Z,7675.00
2023-03-14T21:44:33.278Z,7539.00
2023-03-14T21:48:33.340Z,7943.00
2023-03-14T21:52:33.493Z,8600.00
2023-03-14T21:56:33.558Z,8600.00
2023-03-14T22:00:33.670Z,8442.00
2023-03-14T22:04:33.857Z,8261.00
2023-03-14T22:08:34.004Z,8568.00
2023-03-14T22:12:34.154Z,8222.00
2023-03-14T22:16:34.305Z,8467.00
2023-03-14T22:20:34.351Z,8388.00
2023-03-14T22:24:34.510Z,7042.00
2023-03-14T22:28:34.610Z,6133.00
2023-03-14T22:32:34.797Z,3300.00
2023-03-14T22:36:34.809Z,5512.00
2023-03-14T22:40:34.902Z,2822.00
2023-03-14T22:44:35.022Z,2333.00
2023-03-14T22:48:35.178Z,1110.00
2023-03-14T22:52:35.351Z,1702.00
2023-03-14T22:56:35.459Z,1662.00
2023-03-14T23:00:35.627Z,641.00
2023-03-14T23:04:35.752Z,1009.00
2023-03-14T23:08:35.918Z,1466.00
2023-03-14T23:12:35.901Z,2889.00
2023-03-14T23:16:40.701Z,4750.00
2023-03-14T23:20:37.011Z,3699.00
2023-03-14T23:24:35.981Z,3625.00
2023-03-14T23:28:35.948Z,4463.00
2023-03-14T23:32:36.119Z,4382.00
2023-03-14T23:36:36.301Z,4026.00
2023-03-14T23:40:36.305Z,3707.00
2023-03-14T23:44:36.419Z,5190.00
2023-03-14T23:48:36.588Z,4986.00
2023-03-14T23:52:36.722Z,5045.00
2023-03-14T23:56:36.856Z,5057.00
